sensor_id;sensor_type;location;lat;lon;timestamp;pressure;altitude;pressure_sealevel;temperature;humidity
71889;BME280;59762;49.998;14.858;2022-07-23T00:00:15;97334.72;;;21.71;53.29
71889;BME280;59762;49.998;14.858;2022-07-23T00:03:01;97333.84;;;21.75;53.69
71889;BME280;59762;49.998;14.858;2022-07-23T00:05:26;97336.78;;;21.79;53.17
71889;BME280;59762;49.998;14.858;2022-07-23T00:07:52;97335.16;;;21.78;53.26
71889;BME280;59762;49.998;14.858;2022-07-23T00:10:18;97329.53;;;21.74;53.51
71889;BME280;59762;49.998;14.858;2022-07-23T00:12:43;97323.88;;;21.71;53.26
71889;BME280;59762;49.998;14.858;2022-07-23T00:15:09;97316.00;;;21.69;53.65
71889;BME280;59762;49.998;14.858;2022-07-23T00:17:35;97310.66;;;21.64;53.77
71889;BME280;59762;49.998;14.858;2022-07-23T00:20:01;97306.91;;;21.60;53.67
71889;BME280;59762;49.998;14.858;2022-07-23T00:22:27;97304.56;;;21.53;54.31
71889;BME280;59762;49.998;14.858;2022-07-23T00:24:55;97305.72;;;21.47;54.50
71889;BME280;59762;49.998;14.858;2022-07-23T00:27:20;97294.91;;;21.42;53.96
71889;BME280;59762;49.998;14.858;2022-07-23T00:29:46;97299.00;;;21.39;53.99
71889;BME280;59762;49.998;14.858;2022-07-23T00:32:12;97299.28;;;21.38;54.30
71889;BME280;59762;49.998;14.858;2022-07-23T00:34:37;97305.81;;;21.37;54.47
71889;BME280;59762;49.998;14.858;2022-07-23T00:37:03;97291.16;;;21.38;53.87
71889;BME280;59762;49.998;14.858;2022-07-23T00:39:28;97297.63;;;21.42;54.09
71889;BME280;59762;49.998;14.858;2022-07-23T00:41:54;97304.44;;;21.39;54.37
71889;BME280;59762;49.998;14.858;2022-07-23T00:44:25;97293.00;;;21.42;54.30
71889;BME280;59762;49.998;14.858;2022-07-23T00:46:54;97290.88;;;21.39;54.42
71889;BME280;59762;49.998;14.858;2022-07-23T00:49:21;97295.50;;;21.39;54.93
71889;BME280;59762;49.998;14.858;2022-07-23T00:51:48;97297.97;;;21.35;54.43
71889;BME280;59762;49.998;14.858;2022-07-23T00:54:15;97303.69;;;21.34;54.71
71889;BME280;59762;49.998;14.858;2022-07-23T00:56:43;97302.06;;;21.33;54.81
71889;BME280;59762;49.998;14.858;2022-07-23T00:59:10;97302.06;;;21.33;54.73
71889;BME280;59762;49.998;14.858;2022-07-23T01:01:36;97292.84;;;21.34;54.94
71889;BME280;59762;49.998;14.858;2022-07-23T01:04:02;97300.44;;;21.32;55.23
71889;BME280;59762;49.998;14.858;2022-07-23T01:06:27;97294.50;;;21.30;54.82
71889;BME280;59762;49.998;14.858;2022-07-23T01:08:54;97294.34;;;21.45;54.13
71889;BME280;59762;49.998;14.858;2022-07-23T01:11:22;97293.34;;;21.36;54.42
71889;BME280;59762;49.998;14.858;2022-07-23T01:13:48;97301.50;;;21.31;55.55
71889;BME280;59762;49.998;14.858;2022-07-23T01:16:14;97297.47;;;21.28;54.92
71889;BME280;59762;49.998;14.858;2022-07-23T01:18:39;97291.81;;;21.25;55.06
71889;BME280;59762;49.998;14.858;2022-07-23T01:21:05;97288.09;;;21.21;54.92
71889;BME280;59762;49.998;14.858;2022-07-23T01:23:31;97288.66;;;21.17;55.63
71889;BME280;59762;49.998;14.858;2022-07-23T01:25:56;97287.13;;;21.06;56.30
71889;BME280;59762;49.998;14.858;2022-07-23T01:28:22;97288.84;;;20.97;56.50
71889;BME280;59762;49.998;14.858;2022-07-23T01:30:48;97295.97;;;20.88;56.64
71889;BME280;59762;49.998;14.858;2022-07-23T01:33:14;97293.06;;;20.79;56.86
71889;BME280;59762;49.998;14.858;2022-07-23T01:35:40;97282.56;;;20.73;57.68
71889;BME280;59762;49.998;14.858;2022-07-23T01:38:05;97284.75;;;20.71;57.99
71889;BME280;59762;49.998;14.858;2022-07-23T01:40:31;97275.31;;;20.68;57.98
71889;BME280;59762;49.998;14.858;2022-07-23T01:42:57;97278.53;;;20.70;58.22
71889;BME280;59762;49.998;14.858;2022-07-23T01:45:23;97273.09;;;20.70;58.20
71889;BME280;59762;49.998;14.858;2022-07-23T01:47:49;97273.97;;;20.65;57.82
71889;BME280;59762;49.998;14.858;2022-07-23T01:50:14;97273.97;;;20.65;58.16
71889;BME280;59762;49.998;14.858;2022-07-23T01:52:40;97274.25;;;20.64;57.48
71889;BME280;59762;49.998;14.858;2022-07-23T01:55:08;97271.78;;;20.68;57.29
71889;BME280;59762;49.998;14.858;2022-07-23T01:57:33;97265.28;;;20.69;58.12
71889;BME280;59762;49.998;14.858;2022-07-23T01:59:59;97264.06;;;20.51;58.38
71889;BME280;59762;49.998;14.858;2022-07-23T02:02:25;97266.84;;;20.35;59.29
71889;BME280;59762;49.998;14.858;2022-07-23T02:04:50;97260.72;;;20.25;59.94
71889;BME280;59762;49.998;14.858;2022-07-23T02:07:16;97264.00;;;20.16;60.58
71889;BME280;59762;49.998;14.858;2022-07-23T02:09:42;97263.00;;;20.07;60.97
71889;BME280;59762;49.998;14.858;2022-07-23T02:12:07;97262.47;;;20.00;61.68
71889;BME280;59762;49.998;14.858;2022-07-23T02:14:33;97261.72;;;19.95;61.90
71889;BME280;59762;49.998;14.858;2022-07-23T02:16:59;97268.47;;;19.92;61.85
71889;BME280;59762;49.998;14.858;2022-07-23T02:19:25;97260.13;;;19.88;61.69
71889;BME280;59762;49.998;14.858;2022-07-23T02:21:50;97262.84;;;19.88;60.83
71889;BME280;59762;49.998;14.858;2022-07-23T02:24:16;97259.31;;;19.93;61.06
71889;BME280;59762;49.998;14.858;2022-07-23T02:26:42;97259.84;;;19.90;61.70
71889;BME280;59762;49.998;14.858;2022-07-23T02:29:08;97265.00;;;19.86;61.74
71889;BME280;59762;49.998;14.858;2022-07-23T02:31:34;97264.22;;;19.81;62.15
71889;BME280;59762;49.998;14.858;2022-07-23T02:34:00;97263.16;;;19.77;62.45
71889;BME280;59762;49.998;14.858;2022-07-23T02:36:26;97268.03;;;19.75;62.77
71889;BME280;59762;49.998;14.858;2022-07-23T02:38:52;97266.66;;;19.77;63.00
71889;BME280;59762;49.998;14.858;2022-07-23T02:41:17;97255.06;;;19.77;62.54
71889;BME280;59762;49.998;14.858;2022-07-23T02:43:43;97253.66;;;19.84;61.55
71889;BME280;59762;49.998;14.858;2022-07-23T02:46:08;97256.31;;;19.95;60.79
71889;BME280;59762;49.998;14.858;2022-07-23T02:48:34;97257.09;;;19.95;61.08
71889;BME280;59762;49.998;14.858;2022-07-23T02:50:59;97242.50;;;20.01;60.39
71889;BME280;59762;49.998;14.858;2022-07-23T02:53:25;97246.78;;;20.07;60.20
71889;BME280;59762;49.998;14.858;2022-07-23T02:55:51;97244.59;;;20.09;60.07
71889;BME280;59762;49.998;14.858;2022-07-23T02:58:17;97240.78;;;20.15;59.19
71889;BME280;59762;49.998;14.858;2022-07-23T03:00:43;97246.09;;;20.26;58.75
71889;BME280;59762;49.998;14.858;2022-07-23T03:03:08;97246.00;;;20.36;58.32
71889;BME280;59762;49.998;14.858;2022-07-23T03:05:34;97240.00;;;20.44;58.25
71889;BME280;59762;49.998;14.858;2022-07-23T03:08:00;97239.19;;;20.49;58.17
71889;BME280;59762;49.998;14.858;2022-07-23T03:10:26;97241.84;;;20.54;58.29
71889;BME280;59762;49.998;14.858;2022-07-23T03:12:51;97246.16;;;20.60;57.96
71889;BME280;59762;49.998;14.858;2022-07-23T03:15:17;97246.38;;;20.63;57.89
71889;BME280;59762;49.998;14.858;2022-07-23T03:17:43;97231.22;;;20.62;57.96
71889;BME280;59762;49.998;14.858;2022-07-23T03:20:08;97231.53;;;20.61;58.07
71889;BME280;59762;49.998;14.858;2022-07-23T03:22:34;97225.59;;;20.59;58.34
71889;BME280;59762;49.998;14.858;2022-07-23T03:25:00;97230.16;;;20.58;58.04
71889;BME280;59762;49.998;14.858;2022-07-23T03:27:28;97231.31;;;20.52;57.90
71889;BME280;59762;49.998;14.858;2022-07-23T03:29:56;97225.91;;;20.52;57.97
71889;BME280;59762;49.998;14.858;2022-07-23T03:32:22;97231.06;;;20.49;58.05
71889;BME280;59762;49.998;14.858;2022-07-23T03:34:48;97232.97;;;20.48;57.87
71889;BME280;59762;49.998;14.858;2022-07-23T03:37:14;97230.00;;;20.50;58.21
71889;BME280;59762;49.998;14.858;2022-07-23T03:39:40;97227.31;;;20.50;57.63
71889;BME280;59762;49.998;14.858;2022-07-23T03:42:06;97222.91;;;20.54;58.31
71889;BME280;59762;49.998;14.858;2022-07-23T03:44:32;97225.91;;;20.52;58.24
71889;BME280;59762;49.998;14.858;2022-07-23T03:46:57;97223.19;;;20.52;58.22
71889;BME280;59762;49.998;14.858;2022-07-23T03:49:23;97216.44;;;20.55;57.76
71889;BME280;59762;49.998;14.858;2022-07-23T03:51:49;97212.91;;;20.54;57.90
71889;BME280;59762;49.998;14.858;2022-07-23T03:54:15;97217.47;;;20.59;58.07
71889;BME280;59762;49.998;14.858;2022-07-23T03:56:40;97214.53;;;20.55;58.13
71889;BME280;59762;49.998;14.858;2022-07-23T03:59:06;97205.03;;;20.58;58.19
71889;BME280;59762;49.998;14.858;2022-07-23T04:01:32;97205.03;;;20.58;57.98
71889;BME280;59762;49.998;14.858;2022-07-23T04:03:57;97199.03;;;20.61;58.10
71889;BME280;59762;49.998;14.858;2022-07-23T04:06:23;97195.78;;;20.64;57.92
71889;BME280;59762;49.998;14.858;2022-07-23T04:08:48;97186.00;;;20.68;57.52
71889;BME280;59762;49.998;14.858;2022-07-23T04:11:14;97183.75;;;20.75;57.53
71889;BME280;59762;49.998;14.858;2022-07-23T04:13:40;97167.19;;;20.82;57.29
71889;BME280;59762;49.998;14.858;2022-07-23T04:16:05;97160.59;;;20.88;56.58
71889;BME280;59762;49.998;14.858;2022-07-23T04:18:31;97150.00;;;20.91;56.38
71889;BME280;59762;49.998;14.858;2022-07-23T04:20:57;97160.22;;;21.00;56.42
71889;BME280;59762;49.998;14.858;2022-07-23T04:23:23;97156.88;;;21.08;55.94
71889;BME280;59762;49.998;14.858;2022-07-23T04:25:48;97150.66;;;21.07;56.14
71889;BME280;59762;49.998;14.858;2022-07-23T04:28:14;97143.53;;;21.11;56.63
71889;BME280;59762;49.998;14.858;2022-07-23T04:30:40;97145.75;;;21.09;56.50
71889;BME280;59762;49.998;14.858;2022-07-23T04:33:06;97153.56;;;21.11;56.47
71889;BME280;59762;49.998;14.858;2022-07-23T04:35:35;97157.06;;;21.11;55.38
71889;BME280;59762;49.998;14.858;2022-07-23T04:38:01;97170.28;;;21.18;55.85
71889;BME280;59762;49.998;14.858;2022-07-23T04:40:27;97184.75;;;21.08;56.75
71889;BME280;59762;49.998;14.858;2022-07-23T04:42:53;97176.41;;;21.05;56.51
71889;BME280;59762;49.998;14.858;2022-07-23T04:45:18;97184.28;;;21.01;57.11
71889;BME280;59762;49.998;14.858;2022-07-23T04:47:44;97177.81;;;20.97;57.90
71889;BME280;59762;49.998;14.858;2022-07-23T04:50:10;97180.53;;;20.97;57.88
71889;BME280;59762;49.998;14.858;2022-07-23T04:52:35;97177.56;;;20.99;57.97
71889;BME280;59762;49.998;14.858;2022-07-23T04:55:01;97178.31;;;21.04;58.17
71889;BME280;59762;49.998;14.858;2022-07-23T04:57:27;97189.00;;;21.14;56.99
71889;BME280;59762;49.998;14.858;2022-07-23T04:59:53;97195.41;;;21.24;57.34
71889;BME280;59762;49.998;14.858;2022-07-23T05:02:18;97192.09;;;21.32;57.06
71889;BME280;59762;49.998;14.858;2022-07-23T05:04:44;97200.38;;;21.40;57.40
71889;BME280;59762;49.998;14.858;2022-07-23T05:07:09;97218.16;;;21.47;56.63
71889;BME280;59762;49.998;14.858;2022-07-23T05:09:35;97233.94;;;21.45;56.99
71889;BME280;59762;49.998;14.858;2022-07-23T05:12:01;97254.25;;;21.42;58.47
71889;BME280;59762;49.998;14.858;2022-07-23T05:14:26;97253.84;;;21.30;58.69
71889;BME280;59762;49.998;14.858;2022-07-23T05:16:53;97247.88;;;21.33;60.93
71889;BME280;59762;49.998;14.858;2022-07-23T05:19:19;97246.72;;;21.39;58.66
71889;BME280;59762;49.998;14.858;2022-07-23T05:21:44;97234.56;;;21.36;61.05
71889;BME280;59762;49.998;14.858;2022-07-23T05:24:10;97226.44;;;21.36;61.28
71889;BME280;59762;49.998;14.858;2022-07-23T05:26:35;97220.69;;;21.43;61.50
71889;BME280;59762;49.998;14.858;2022-07-23T05:29:01;97234.72;;;21.45;59.00
71889;BME280;59762;49.998;14.858;2022-07-23T05:31:26;97249.00;;;21.51;59.58
71889;BME280;59762;49.998;14.858;2022-07-23T05:33:52;97240.63;;;21.52;60.21
71889;BME280;59762;49.998;14.858;2022-07-23T05:36:17;97240.69;;;21.47;58.75
71889;BME280;59762;49.998;14.858;2022-07-23T05:38:43;97252.31;;;21.48;57.41
71889;BME280;59762;49.998;14.858;2022-07-23T05:41:09;97231.94;;;21.50;57.63
71889;BME280;59762;49.998;14.858;2022-07-23T05:43:34;97226.59;;;21.45;58.01
71889;BME280;59762;49.998;14.858;2022-07-23T05:46:00;97223.88;;;21.45;57.70
71889;BME280;59762;49.998;14.858;2022-07-23T05:48:25;97232.38;;;21.38;58.60
71889;BME280;59762;49.998;14.858;2022-07-23T05:50:51;97243.72;;;21.40;57.39
71889;BME280;59762;49.998;14.858;2022-07-23T05:53:16;97244.22;;;21.42;56.72
71889;BME280;59762;49.998;14.858;2022-07-23T05:55:42;97254.72;;;21.49;56.68
71889;BME280;59762;49.998;14.858;2022-07-23T05:58:08;97255.03;;;21.48;57.01
71889;BME280;59762;49.998;14.858;2022-07-23T06:00:34;97244.53;;;21.41;56.43
71889;BME280;59762;49.998;14.858;2022-07-23T06:03:00;97240.16;;;21.45;56.80
71889;BME280;59762;49.998;14.858;2022-07-23T06:05:26;97246.72;;;21.39;57.60
71889;BME280;59762;49.998;14.858;2022-07-23T06:07:51;97236.47;;;21.36;57.55
71889;BME280;59762;49.998;14.858;2022-07-23T06:10:18;97255.94;;;21.38;57.73
71889;BME280;59762;49.998;14.858;2022-07-23T06:12:44;97246.78;;;21.34;57.60
71889;BME280;59762;49.998;14.858;2022-07-23T06:15:10;97250.56;;;21.33;58.37
71889;BME280;59762;49.998;14.858;2022-07-23T06:17:36;97258.13;;;21.36;57.74
71889;BME280;59762;49.998;14.858;2022-07-23T06:20:06;97262.94;;;21.44;58.88
71889;BME280;59762;49.998;14.858;2022-07-23T06:22:31;97264.84;;;21.44;60.68
71889;BME280;59762;49.998;14.858;2022-07-23T06:24:57;97259.66;;;21.47;60.98
71889;BME280;59762;49.998;14.858;2022-07-23T06:27:23;97251.44;;;21.52;61.49
71889;BME280;59762;49.998;14.858;2022-07-23T06:29:48;97261.59;;;21.65;62.45
71889;BME280;59762;49.998;14.858;2022-07-23T06:32:14;97257.38;;;21.78;60.33
71889;BME280;59762;49.998;14.858;2022-07-23T06:34:39;97259.22;;;22.02;58.80
71889;BME280;59762;49.998;14.858;2022-07-23T06:37:05;97259.38;;;22.29;59.18
71889;BME280;59762;49.998;14.858;2022-07-23T06:39:31;97265.53;;;22.54;59.67
71889;BME280;59762;49.998;14.858;2022-07-23T06:41:56;97270.81;;;22.78;59.25
71889;BME280;59762;49.998;14.858;2022-07-23T06:44:22;97282.06;;;22.90;58.37
71889;BME280;59762;49.998;14.858;2022-07-23T06:46:48;97283.56;;;22.96;57.69
71889;BME280;59762;49.998;14.858;2022-07-23T06:49:13;97288.63;;;23.03;57.57
71889;BME280;59762;49.998;14.858;2022-07-23T06:51:39;97293.28;;;23.30;57.90
71889;BME280;59762;49.998;14.858;2022-07-23T06:54:04;97286.63;;;23.63;56.63
71889;BME280;59762;49.998;14.858;2022-07-23T06:56:30;97281.22;;;23.77;55.67
71889;BME280;59762;49.998;14.858;2022-07-23T06:58:56;97276.59;;;23.91;56.50
71889;BME280;59762;49.998;14.858;2022-07-23T07:01:22;97276.63;;;23.78;55.18
71889;BME280;59762;49.998;14.858;2022-07-23T07:03:47;97269.97;;;23.70;54.90
71889;BME280;59762;49.998;14.858;2022-07-23T07:06:13;97277.81;;;23.72;54.08
71889;BME280;59762;49.998;14.858;2022-07-23T07:08:39;97284.94;;;23.81;55.68
71889;BME280;59762;49.998;14.858;2022-07-23T07:11:05;97282.13;;;24.00;56.36
71889;BME280;59762;49.998;14.858;2022-07-23T07:13:30;97277.84;;;24.22;57.75
71889;BME280;59762;49.998;14.858;2022-07-23T07:15:56;97271.34;;;24.31;54.84
71889;BME280;59762;49.998;14.858;2022-07-23T07:18:22;97268.91;;;24.30;56.12
71889;BME280;59762;49.998;14.858;2022-07-23T07:20:47;97280.59;;;23.94;54.68
71889;BME280;59762;49.998;14.858;2022-07-23T07:23:13;97280.59;;;23.94;56.71
71889;BME280;59762;49.998;14.858;2022-07-23T07:25:38;97284.16;;;23.81;55.78
71889;BME280;59762;49.998;14.858;2022-07-23T07:28:04;97288.09;;;23.75;57.16
71889;BME280;59762;49.998;14.858;2022-07-23T07:30:30;97286.16;;;23.75;56.98
71889;BME280;59762;49.998;14.858;2022-07-23T07:32:55;97287.09;;;23.71;58.24
71889;BME280;59762;49.998;14.858;2022-07-23T07:35:21;97291.03;;;23.64;59.06
71889;BME280;59762;49.998;14.858;2022-07-23T07:37:46;97290.78;;;23.61;59.45
71889;BME280;59762;49.998;14.858;2022-07-23T07:40:12;97290.16;;;23.50;59.74
71889;BME280;59762;49.998;14.858;2022-07-23T07:42:48;97289.16;;;23.46;59.42
71889;BME280;59762;49.998;14.858;2022-07-23T07:45:14;97285.84;;;23.35;60.19
71889;BME280;59762;49.998;14.858;2022-07-23T07:47:41;97289.34;;;23.22;60.58
71889;BME280;59762;49.998;14.858;2022-07-23T07:50:07;97286.31;;;23.10;60.09
71889;BME280;59762;49.998;14.858;2022-07-23T07:52:34;97288.22;;;23.09;58.58
71889;BME280;59762;49.998;14.858;2022-07-23T07:55:05;97283.22;;;23.16;58.95
71889;BME280;59762;49.998;14.858;2022-07-23T07:57:32;97286.41;;;23.19;57.15
71889;BME280;59762;49.998;14.858;2022-07-23T07:59:58;97293.69;;;23.37;57.85
71889;BME280;59762;49.998;14.858;2022-07-23T08:02:24;97286.53;;;23.41;57.81
71889;BME280;59762;49.998;14.858;2022-07-23T08:04:49;97288.88;;;23.48;59.18
71889;BME280;59762;49.998;14.858;2022-07-23T08:07:15;97289.69;;;23.48;56.59
71889;BME280;59762;49.998;14.858;2022-07-23T08:09:41;97285.03;;;23.49;58.01
71889;BME280;59762;49.998;14.858;2022-07-23T08:12:07;97281.09;;;23.41;57.01
71889;BME280;59762;49.998;14.858;2022-07-23T08:14:32;97279.19;;;23.28;57.13
71889;BME280;59762;49.998;14.858;2022-07-23T08:16:58;97282.69;;;23.28;57.42
71889;BME280;59762;49.998;14.858;2022-07-23T08:19:24;97289.88;;;23.24;57.32
71889;BME280;59762;49.998;14.858;2022-07-23T08:21:49;97285.94;;;23.16;58.17
71889;BME280;59762;49.998;14.858;2022-07-23T08:24:15;97286.97;;;23.02;57.65
71889;BME280;59762;49.998;14.858;2022-07-23T08:26:45;97288.50;;;22.94;57.80
71889;BME280;59762;49.998;14.858;2022-07-23T08:29:11;97289.38;;;22.89;56.75
71889;BME280;59762;49.998;14.858;2022-07-23T08:31:36;97294.28;;;22.87;55.89
71889;BME280;59762;49.998;14.858;2022-07-23T08:34:02;97298.34;;;22.90;56.29
71889;BME280;59762;49.998;14.858;2022-07-23T08:36:28;97299.63;;;22.92;55.11
71889;BME280;59762;49.998;14.858;2022-07-23T08:38:58;97302.88;;;22.95;52.65
71889;BME280;59762;49.998;14.858;2022-07-23T08:41:24;97296.94;;;23.06;55.06
71889;BME280;59762;49.998;14.858;2022-07-23T08:43:51;97303.50;;;23.05;52.53
71889;BME280;59762;49.998;14.858;2022-07-23T08:46:19;97298.06;;;23.05;51.89
71889;BME280;59762;49.998;14.858;2022-07-23T08:48:47;97308.34;;;23.08;52.17
71889;BME280;59762;49.998;14.858;2022-07-23T08:51:14;97311.38;;;23.07;52.04
71889;BME280;59762;49.998;14.858;2022-07-23T08:53:41;97308.84;;;23.10;52.61
71889;BME280;59762;49.998;14.858;2022-07-23T08:56:07;97307.75;;;23.11;53.03
71889;BME280;59762;49.998;14.858;2022-07-23T08:58:33;97303.13;;;23.12;54.39
71889;BME280;59762;49.998;14.858;2022-07-23T09:01:00;97304.31;;;23.20;51.64
71889;BME280;59762;49.998;14.858;2022-07-23T09:03:36;97313.22;;;23.25;51.86
71889;BME280;59762;49.998;14.858;2022-07-23T09:06:04;97311.09;;;23.36;51.49
71889;BME280;59762;49.998;14.858;2022-07-23T09:08:40;97308.69;;;23.48;51.31
71889;BME280;59762;49.998;14.858;2022-07-23T09:11:09;97302.69;;;23.79;52.38
71889;BME280;59762;49.998;14.858;2022-07-23T09:13:42;97301.88;;;23.92;50.87
71889;BME280;59762;49.998;14.858;2022-07-23T09:16:13;97304.59;;;23.92;50.46
71889;BME280;59762;49.998;14.858;2022-07-23T09:18:53;97305.09;;;23.94;50.43
71889;BME280;59762;49.998;14.858;2022-07-23T09:26:35;97299.91;;;24.56;50.00
71889;BME280;59762;49.998;14.858;2022-07-23T09:29:21;97303.88;;;24.95;48.28
71889;BME280;59762;49.998;14.858;2022-07-23T09:31:54;97305.25;;;25.06;47.35
71889;BME280;59762;49.998;14.858;2022-07-23T09:34:27;97297.75;;;25.12;47.25
71889;BME280;59762;49.998;14.858;2022-07-23T09:36:57;97293.56;;;25.37;48.01
71889;BME280;59762;49.998;14.858;2022-07-23T09:41:52;97299.22;;;25.89;46.89
71889;BME280;59762;49.998;14.858;2022-07-23T09:44:19;97310.25;;;26.50;46.86
71889;BME280;59762;49.998;14.858;2022-07-23T09:46:47;97296.56;;;26.32;44.42
71889;BME280;59762;49.998;14.858;2022-07-23T09:49:15;97289.00;;;26.38;45.91
71889;BME280;59762;49.998;14.858;2022-07-23T09:54:22;97292.34;;;27.13;45.80
71889;BME280;59762;49.998;14.858;2022-07-23T09:56:49;97283.38;;;26.86;44.88
71889;BME280;59762;49.998;14.858;2022-07-23T09:59:16;97292.06;;;26.80;45.00
71889;BME280;59762;49.998;14.858;2022-07-23T10:01:45;97288.50;;;27.05;45.42
71889;BME280;59762;49.998;14.858;2022-07-23T10:04:11;97292.41;;;26.70;43.75
71889;BME280;59762;49.998;14.858;2022-07-23T10:06:39;97294.34;;;26.52;45.49
71889;BME280;59762;49.998;14.858;2022-07-23T10:09:05;97291.75;;;26.47;45.60
71889;BME280;59762;49.998;14.858;2022-07-23T10:11:31;97294.03;;;26.53;45.88
71889;BME280;59762;49.998;14.858;2022-07-23T10:13:58;97294.03;;;26.45;45.69
71889;BME280;59762;49.998;14.858;2022-07-23T10:16:26;97282.91;;;26.84;45.47
71889;BME280;59762;49.998;14.858;2022-07-23T10:18:51;97292.38;;;26.78;45.43
71889;BME280;59762;49.998;14.858;2022-07-23T10:24:08;97296.25;;;26.69;47.14
71889;BME280;59762;49.998;14.858;2022-07-23T10:26:45;97291.47;;;26.65;46.12
71889;BME280;59762;49.998;14.858;2022-07-23T10:29:42;97294.66;;;26.59;47.12
71889;BME280;59762;49.998;14.858;2022-07-23T10:32:44;97303.81;;;26.63;46.49
71889;BME280;59762;49.998;14.858;2022-07-23T10:35:36;97304.16;;;26.61;47.53
71889;BME280;59762;49.998;14.858;2022-07-23T10:38:13;97304.78;;;26.58;46.83
71889;BME280;59762;49.998;14.858;2022-07-23T10:40:54;97306.72;;;26.49;46.25
71889;BME280;59762;49.998;14.858;2022-07-23T10:43:21;97304.78;;;26.50;46.26
71889;BME280;59762;49.998;14.858;2022-07-23T10:45:47;97300.75;;;26.73;46.09
71889;BME280;59762;49.998;14.858;2022-07-23T10:48:19;97303.81;;;26.80;47.19
71889;BME280;59762;49.998;14.858;2022-07-23T10:51:14;97302.53;;;26.60;46.60
71889;BME280;59762;49.998;14.858;2022-07-23T10:56:15;97299.63;;;26.83;47.62
71889;BME280;59762;49.998;14.858;2022-07-23T10:58:49;97299.28;;;27.10;45.96
71889;BME280;59762;49.998;14.858;2022-07-23T11:03:59;97296.41;;;26.63;46.30
71889;BME280;59762;49.998;14.858;2022-07-23T11:09:39;97285.81;;;26.88;47.57
71889;BME280;59762;49.998;14.858;2022-07-23T11:17:23;97284.84;;;26.66;45.21
71889;BME280;59762;49.998;14.858;2022-07-23T11:22:49;97287.22;;;26.33;48.17
71889;BME280;59762;49.998;14.858;2022-07-23T11:27:47;97273.44;;;26.47;48.89
71889;BME280;59762;49.998;14.858;2022-07-23T11:32:52;97268.81;;;26.48;48.56
71889;BME280;59762;49.998;14.858;2022-07-23T11:35:22;97267.03;;;26.34;47.04
71889;BME280;59762;49.998;14.858;2022-07-23T11:37:49;97255.78;;;26.45;48.13
71889;BME280;59762;49.998;14.858;2022-07-23T11:40:19;97267.19;;;26.55;48.51
71889;BME280;59762;49.998;14.858;2022-07-23T11:43:03;97262.44;;;27.16;48.46
71889;BME280;59762;49.998;14.858;2022-07-23T11:45:49;97252.66;;;27.83;46.35
71889;BME280;59762;49.998;14.858;2022-07-23T11:48:25;97251.53;;;28.05;44.59
71889;BME280;59762;49.998;14.858;2022-07-23T11:50:52;97247.34;;;28.29;42.30
71889;BME280;59762;49.998;14.858;2022-07-23T11:53:30;97239.22;;;28.20;43.06
71889;BME280;59762;49.998;14.858;2022-07-23T11:56:07;97250.59;;;28.01;42.26
71889;BME280;59762;49.998;14.858;2022-07-23T11:58:34;97243.50;;;27.79;43.83
71889;BME280;59762;49.998;14.858;2022-07-23T12:01:03;97242.75;;;28.00;43.10
71889;BME280;59762;49.998;14.858;2022-07-23T12:03:28;97234.69;;;27.74;43.60
71889;BME280;59762;49.998;14.858;2022-07-23T12:05:58;97246.16;;;27.67;43.25
71889;BME280;59762;49.998;14.858;2022-07-23T12:08:24;97246.78;;;27.64;43.90
71889;BME280;59762;49.998;14.858;2022-07-23T12:10:50;97249.00;;;27.71;43.77
71889;BME280;59762;49.998;14.858;2022-07-23T12:13:18;97249.25;;;27.86;44.89
71889;BME280;59762;49.998;14.858;2022-07-23T12:15:57;97252.53;;;27.71;43.58
71889;BME280;59762;49.998;14.858;2022-07-23T12:18:25;97264.22;;;27.89;43.92
71889;BME280;59762;49.998;14.858;2022-07-23T12:20:54;97256.59;;;27.74;43.18
71889;BME280;59762;49.998;14.858;2022-07-23T12:23:21;97261.28;;;27.64;43.42
71889;BME280;59762;49.998;14.858;2022-07-23T12:25:49;97258.72;;;27.59;43.78
71889;BME280;59762;49.998;14.858;2022-07-23T12:28:42;97248.66;;;27.42;44.95
71889;BME280;59762;49.998;14.858;2022-07-23T12:31:08;97259.41;;;27.09;45.09
71889;BME280;59762;49.998;14.858;2022-07-23T12:33:38;97283.41;;;26.43;44.73
71889;BME280;59762;49.998;14.858;2022-07-23T12:36:06;97294.06;;;25.79;46.44
71889;BME280;59762;49.998;14.858;2022-07-23T12:38:46;97306.06;;;25.38;47.43
71889;BME280;59762;49.998;14.858;2022-07-23T12:41:13;97296.50;;;24.96;47.34
71889;BME280;59762;49.998;14.858;2022-07-23T12:43:40;97292.31;;;24.89;47.30
71889;BME280;59762;49.998;14.858;2022-07-23T12:48:35;97277.38;;;24.64;46.29
71889;BME280;59762;49.998;14.858;2022-07-23T12:51:14;97290.81;;;24.38;47.98
71889;BME280;59762;49.998;14.858;2022-07-23T12:53:44;97306.56;;;24.14;48.85
71889;BME280;59762;49.998;14.858;2022-07-23T12:56:12;97323.94;;;23.77;48.63
71889;BME280;59762;49.998;14.858;2022-07-23T13:01:34;97316.84;;;23.48;50.86
71889;BME280;59762;49.998;14.858;2022-07-23T13:04:13;97331.25;;;23.35;52.70
71889;BME280;59762;49.998;14.858;2022-07-23T13:09:22;97341.03;;;21.85;63.76
71889;BME280;59762;49.998;14.858;2022-07-23T13:11:49;97335.00;;;21.11;70.09
71889;BME280;59762;49.998;14.858;2022-07-23T13:14:17;97316.31;;;20.46;73.18
71889;BME280;59762;49.998;14.858;2022-07-23T13:16:43;97312.22;;;20.04;76.01
71889;BME280;59762;49.998;14.858;2022-07-23T13:19:10;97318.31;;;19.76;77.66
71889;BME280;59762;49.998;14.858;2022-07-23T13:21:36;97313.44;;;19.73;81.29
71889;BME280;59762;49.998;14.858;2022-07-23T13:24:01;97306.91;;;19.84;80.63
71889;BME280;59762;49.998;14.858;2022-07-23T13:26:27;97307.16;;;19.93;82.81
71889;BME280;59762;49.998;14.858;2022-07-23T13:28:53;97321.94;;;20.05;82.91
71889;BME280;59762;49.998;14.858;2022-07-23T13:31:19;97321.38;;;20.08;83.31
71889;BME280;59762;49.998;14.858;2022-07-23T13:33:45;97323.78;;;20.15;84.41